sensor_id;sensor_type;location;lat;lon;timestamp;temperature;humidity
68511;SHT31;55512;50.102;19.958;2023-03-01T00:02:00;0.65;59.00
68511;SHT31;55512;50.102;19.958;2023-03-01T00:04:26;0.65;59.00
68511;SHT31;55512;50.102;19.958;2023-03-01T00:06:52;0.65;59.04
68511;SHT31;55512;50.102;19.958;2023-03-01T00:09:18;0.65;59.10
68511;SHT31;55512;50.102;19.958;2023-03-01T00:11:44;0.64;59.09
68511;SHT31;55512;50.102;19.958;2023-03-01T00:14:10;0.62;59.16
68511;SHT31;55512;50.102;19.958;2023-03-01T00:16:38;0.58;59.27
68511;SHT31;55512;50.102;19.958;2023-03-01T00:19:06;0.54;59.55
68511;SHT31;55512;50.102;19.958;2023-03-01T00:21:37;0.49;59.86
68511;SHT31;55512;50.102;19.958;2023-03-01T00:24:02;0.48;60.12
68511;SHT31;55512;50.102;19.958;2023-03-01T00:26:29;0.45;60.40
68511;SHT31;55512;50.102;19.958;2023-03-01T00:28:56;0.43;60.67
68511;SHT31;55512;50.102;19.958;2023-03-01T00:31:24;0.42;60.77
68511;SHT31;55512;50.102;19.958;2023-03-01T00:33:54;0.41;60.73
68511;SHT31;55512;50.102;19.958;2023-03-01T00:36:23;0.39;60.82
68511;SHT31;55512;50.102;19.958;2023-03-01T00:38:52;0.39;60.86
68511;SHT31;55512;50.102;19.958;2023-03-01T00:41:18;0.37;60.94
68511;SHT31;55512;50.102;19.958;2023-03-01T00:43:45;0.34;61.01
68511;SHT31;55512;50.102;19.958;2023-03-01T00:46:12;0.32;61.11
68511;SHT31;55512;50.102;19.958;2023-03-01T00:48:40;0.31;61.16
68511;SHT31;55512;50.102;19.958;2023-03-01T00:51:10;0.30;61.22
68511;SHT31;55512;50.102;19.958;2023-03-01T00:53:39;0.29;61.25
68511;SHT31;55512;50.102;19.958;2023-03-01T00:56:06;0.28;61.32
68511;SHT31;55512;50.102;19.958;2023-03-01T00:58:34;0.27;61.35
68511;SHT31;55512;50.102;19.958;2023-03-01T01:01:00;0.27;61.40
68511;SHT31;55512;50.102;19.958;2023-03-01T01:03:41;0.25;61.47
68511;SHT31;55512;50.102;19.958;2023-03-01T01:06:13;0.24;61.62
68511;SHT31;55512;50.102;19.958;2023-03-01T01:08:40;0.22;61.81
68511;SHT31;55512;50.102;19.958;2023-03-01T01:11:08;0.22;61.85
68511;SHT31;55512;50.102;19.958;2023-03-01T01:13:35;0.20;61.89
68511;SHT31;55512;50.102;19.958;2023-03-01T01:16:01;0.21;61.88
68511;SHT31;55512;50.102;19.958;2023-03-01T01:18:27;0.21;61.77
68511;SHT31;55512;50.102;19.958;2023-03-01T01:20:53;0.18;61.70
68511;SHT31;55512;50.102;19.958;2023-03-01T01:23:18;0.17;61.74
68511;SHT31;55512;50.102;19.958;2023-03-01T01:25:44;0.14;61.80
68511;SHT31;55512;50.102;19.958;2023-03-01T01:28:09;0.12;61.85
68511;SHT31;55512;50.102;19.958;2023-03-01T01:30:35;0.07;61.94
68511;SHT31;55512;50.102;19.958;2023-03-01T01:33:00;0.04;62.03
68511;SHT31;55512;50.102;19.958;2023-03-01T01:35:27;0.04;62.15
68511;SHT31;55512;50.102;19.958;2023-03-01T01:37:52;0.04;62.15
68511;SHT31;55512;50.102;19.958;2023-03-01T01:40:18;0.03;62.17
68511;SHT31;55512;50.102;19.958;2023-03-01T01:42:43;0.01;62.18
68511;SHT31;55512;50.102;19.958;2023-03-01T01:45:24;0.01;62.28
68511;SHT31;55512;50.102;19.958;2023-03-01T01:47:55;0.02;62.30
68511;SHT31;55512;50.102;19.958;2023-03-01T01:50:29;0.04;62.27
68511;SHT31;55512;50.102;19.958;2023-03-01T01:53:02;0.05;62.22
68511;SHT31;55512;50.102;19.958;2023-03-01T01:55:34;0.07;62.24
68511;SHT31;55512;50.102;19.958;2023-03-01T01:58:05;0.08;62.23
68511;SHT31;55512;50.102;19.958;2023-03-01T02:00:34;0.08;62.20
68511;SHT31;55512;50.102;19.958;2023-03-01T02:03:04;0.06;62.22
68511;SHT31;55512;50.102;19.958;2023-03-01T02:08:48;0.03;62.30
68511;SHT31;55512;50.102;19.958;2023-03-01T02:11:17;0.02;62.36
68511;SHT31;55512;50.102;19.958;2023-03-01T02:13:44;0.00;62.48
68511;SHT31;55512;50.102;19.958;2023-03-01T02:16:13;-0.01;62.58
68511;SHT31;55512;50.102;19.958;2023-03-01T02:18:41;-0.05;62.59
68511;SHT31;55512;50.102;19.958;2023-03-01T02:21:12;-0.06;62.66
68511;SHT31;55512;50.102;19.958;2023-03-01T02:23:45;-0.07;62.60
68511;SHT31;55512;50.102;19.958;2023-03-01T02:28:44;-0.10;62.61
68511;SHT31;55512;50.102;19.958;2023-03-01T02:31:11;-0.10;62.66
68511;SHT31;55512;50.102;19.958;2023-03-01T02:34:01;-0.11;62.91
68511;SHT31;55512;50.102;19.958;2023-03-01T02:36:35;-0.11;63.00
68511;SHT31;55512;50.102;19.958;2023-03-01T02:39:11;-0.12;63.01
68511;SHT31;55512;50.102;19.958;2023-03-01T02:41:46;-0.16;63.10
68511;SHT31;55512;50.102;19.958;2023-03-01T02:44:16;-0.20;63.08
68511;SHT31;55512;50.102;19.958;2023-03-01T02:46:43;-0.22;63.11
68511;SHT31;55512;50.102;19.958;2023-03-01T02:49:28;-0.22;63.20
68511;SHT31;55512;50.102;19.958;2023-03-01T02:54:58;-0.23;63.39
68511;SHT31;55512;50.102;19.958;2023-03-01T02:57:31;-0.22;63.40
68511;SHT31;55512;50.102;19.958;2023-03-01T03:00:03;-0.22;63.37
68511;SHT31;55512;50.102;19.958;2023-03-01T03:02:35;-0.20;63.31
68511;SHT31;55512;50.102;19.958;2023-03-01T03:05:09;-0.17;63.34
68511;SHT31;55512;50.102;19.958;2023-03-01T03:07:42;-0.18;63.32
68511;SHT31;55512;50.102;19.958;2023-03-01T03:10:13;-0.26;63.40
68511;SHT31;55512;50.102;19.958;2023-03-01T03:12:48;-0.32;63.39
68511;SHT31;55512;50.102;19.958;2023-03-01T03:15:16;-0.35;63.36
68511;SHT31;55512;50.102;19.958;2023-03-01T03:17:42;-0.37;63.48
68511;SHT31;55512;50.102;19.958;2023-03-01T03:20:09;-0.38;63.60
68511;SHT31;55512;50.102;19.958;2023-03-01T03:22:38;-0.38;63.70
68511;SHT31;55512;50.102;19.958;2023-03-01T03:25:05;-0.37;63.63
68511;SHT31;55512;50.102;19.958;2023-03-01T03:27:39;-0.37;63.72
68511;SHT31;55512;50.102;19.958;2023-03-01T03:30:08;-0.38;63.75
68511;SHT31;55512;50.102;19.958;2023-03-01T03:32:40;-0.41;63.82
68511;SHT31;55512;50.102;19.958;2023-03-01T03:35:17;-0.44;63.84
68511;SHT31;55512;50.102;19.958;2023-03-01T03:37:53;-0.44;64.06
68511;SHT31;55512;50.102;19.958;2023-03-01T03:40:32;-0.44;64.02
68511;SHT31;55512;50.102;19.958;2023-03-01T03:43:02;-0.45;63.91
68511;SHT31;55512;50.102;19.958;2023-03-01T03:45:30;-0.47;63.83
68511;SHT31;55512;50.102;19.958;2023-03-01T03:47:58;-0.47;63.87
68511;SHT31;55512;50.102;19.958;2023-03-01T03:50:25;-0.47;63.96
68511;SHT31;55512;50.102;19.958;2023-03-01T03:52:51;-0.49;63.92
68511;SHT31;55512;50.102;19.958;2023-03-01T03:55:17;-0.53;63.90
68511;SHT31;55512;50.102;19.958;2023-03-01T03:57:44;-0.54;63.87
68511;SHT31;55512;50.102;19.958;2023-03-01T04:00:19;-0.54;63.87
68511;SHT31;55512;50.102;19.958;2023-03-01T04:02:48;-0.54;63.98
68511;SHT31;55512;50.102;19.958;2023-03-01T04:05:16;-0.55;64.11
68511;SHT31;55512;50.102;19.958;2023-03-01T04:07:44;-0.58;64.20
68511;SHT31;55512;50.102;19.958;2023-03-01T04:10:12;-0.63;64.08
68511;SHT31;55512;50.102;19.958;2023-03-01T04:12:43;-0.66;64.12
68511;SHT31;55512;50.102;19.958;2023-03-01T04:15:09;-0.68;64.21
68511;SHT31;55512;50.102;19.958;2023-03-01T04:17:40;-0.69;64.30
68511;SHT31;55512;50.102;19.958;2023-03-01T04:20:10;-0.68;64.45
68511;SHT31;55512;50.102;19.958;2023-03-01T04:22:39;-0.67;64.60
68511;SHT31;55512;50.102;19.958;2023-03-01T04:25:05;-0.63;64.54
68511;SHT31;55512;50.102;19.958;2023-03-01T04:27:34;-0.62;64.44
68511;SHT31;55512;50.102;19.958;2023-03-01T04:30:01;-0.63;64.48
68511;SHT31;55512;50.102;19.958;2023-03-01T04:32:30;-0.64;64.59
68511;SHT31;55512;50.102;19.958;2023-03-01T04:34:56;-0.63;64.66
68511;SHT31;55512;50.102;19.958;2023-03-01T04:37:23;-0.64;64.62
68511;SHT31;55512;50.102;19.958;2023-03-01T04:39:49;-0.66;64.69
68511;SHT31;55512;50.102;19.958;2023-03-01T04:42:14;-0.69;64.70
68511;SHT31;55512;50.102;19.958;2023-03-01T04:44:41;-0.72;64.71
68511;SHT31;55512;50.102;19.958;2023-03-01T04:47:08;-0.73;64.80
68511;SHT31;55512;50.102;19.958;2023-03-01T04:49:34;-0.74;64.84
68511;SHT31;55512;50.102;19.958;2023-03-01T04:51:59;-0.77;64.87
68511;SHT31;55512;50.102;19.958;2023-03-01T04:54:30;-0.80;64.87
68511;SHT31;55512;50.102;19.958;2023-03-01T04:56:58;-0.82;64.90
68511;SHT31;55512;50.102;19.958;2023-03-01T04:59:24;-0.83;64.82
68511;SHT31;55512;50.102;19.958;2023-03-01T05:01:53;-0.84;64.80
68511;SHT31;55512;50.102;19.958;2023-03-01T05:04:24;-0.82;64.80
68511;SHT31;55512;50.102;19.958;2023-03-01T05:06:50;-0.81;64.72
68511;SHT31;55512;50.102;19.958;2023-03-01T05:09:15;-0.80;64.82
68511;SHT31;55512;50.102;19.958;2023-03-01T05:11:42;-0.77;65.00
68511;SHT31;55512;50.102;19.958;2023-03-01T05:14:08;-0.74;65.00
68511;SHT31;55512;50.102;19.958;2023-03-01T05:16:35;-0.76;65.00
68511;SHT31;55512;50.102;19.958;2023-03-01T05:19:02;-0.79;65.07
68511;SHT31;55512;50.102;19.958;2023-03-01T05:21:37;-0.81;65.07
68511;SHT31;55512;50.102;19.958;2023-03-01T05:24:23;-0.83;64.91
68511;SHT31;55512;50.102;19.958;2023-03-01T05:26:49;-0.85;64.96
68511;SHT31;55512;50.102;19.958;2023-03-01T05:29:17;-0.85;65.14
68511;SHT31;55512;50.102;19.958;2023-03-01T05:31:50;-0.82;65.20
68511;SHT31;55512;50.102;19.958;2023-03-01T05:34:28;-0.81;65.22
68511;SHT31;55512;50.102;19.958;2023-03-01T05:36:56;-0.83;65.29
68511;SHT31;55512;50.102;19.958;2023-03-01T05:39:23;-0.84;65.30
68511;SHT31;55512;50.102;19.958;2023-03-01T05:41:52;-0.84;65.21
68511;SHT31;55512;50.102;19.958;2023-03-01T05:44:19;-0.84;65.21
68511;SHT31;55512;50.102;19.958;2023-03-01T05:46:45;-0.83;65.33
68511;SHT31;55512;50.102;19.958;2023-03-01T05:49:12;-0.81;65.43
68511;SHT31;55512;50.102;19.958;2023-03-01T05:51:39;-0.81;65.54
68511;SHT31;55512;50.102;19.958;2023-03-01T05:54:06;-0.80;65.63
68511;SHT31;55512;50.102;19.958;2023-03-01T05:56:33;-0.76;65.72
68511;SHT31;55512;50.102;19.958;2023-03-01T05:59:00;-0.72;65.74
68511;SHT31;55512;50.102;19.958;2023-03-01T06:01:26;-0.68;65.64
68511;SHT31;55512;50.102;19.958;2023-03-01T06:03:52;-0.65;65.60
68511;SHT31;55512;50.102;19.958;2023-03-01T06:06:18;-0.60;65.57
68511;SHT31;55512;50.102;19.958;2023-03-01T06:08:43;-0.55;65.50
68511;SHT31;55512;50.102;19.958;2023-03-01T06:11:09;-0.51;65.50
68511;SHT31;55512;50.102;19.958;2023-03-01T06:13:34;-0.47;65.43
68511;SHT31;55512;50.102;19.958;2023-03-01T06:16:00;-0.44;65.42
68511;SHT31;55512;50.102;19.958;2023-03-01T06:18:29;-0.37;65.37
68511;SHT31;55512;50.102;19.958;2023-03-01T06:20:55;-0.29;65.33
68511;SHT31;55512;50.102;19.958;2023-03-01T06:23:21;-0.22;65.40
68511;SHT31;55512;50.102;19.958;2023-03-01T06:25:48;-0.14;65.40
68511;SHT31;55512;50.102;19.958;2023-03-01T06:28:13;-0.09;65.37
68511;SHT31;55512;50.102;19.958;2023-03-01T06:30:39;-0.04;65.39
68511;SHT31;55512;50.102;19.958;2023-03-01T06:33:04;0.01;65.39
68511;SHT31;55512;50.102;19.958;2023-03-01T06:35:30;0.02;65.31
68511;SHT31;55512;50.102;19.958;2023-03-01T06:37:56;0.01;65.28
68511;SHT31;55512;50.102;19.958;2023-03-01T06:40:24;0.03;65.20
68511;SHT31;55512;50.102;19.958;2023-03-01T06:42:50;0.07;65.19
68511;SHT31;55512;50.102;19.958;2023-03-01T06:45:17;0.12;65.10
68511;SHT31;55512;50.102;19.958;2023-03-01T06:47:45;0.14;65.08
68511;SHT31;55512;50.102;19.958;2023-03-01T06:50:11;0.15;65.11
68511;SHT31;55512;50.102;19.958;2023-03-01T06:52:38;0.15;65.26
68511;SHT31;55512;50.102;19.958;2023-03-01T06:55:04;0.21;65.29
68511;SHT31;55512;50.102;19.958;2023-03-01T06:57:30;0.27;65.20
68511;SHT31;55512;50.102;19.958;2023-03-01T06:59:56;0.35;65.20
68511;SHT31;55512;50.102;19.958;2023-03-01T07:02:22;0.43;65.15
68511;SHT31;55512;50.102;19.958;2023-03-01T07:04:49;0.51;65.10
68511;SHT31;55512;50.102;19.958;2023-03-01T07:07:15;0.60;65.09
68511;SHT31;55512;50.102;19.958;2023-03-01T07:09:43;0.69;64.99
68511;SHT31;55512;50.102;19.958;2023-03-01T07:12:10;0.77;64.88
68511;SHT31;55512;50.102;19.958;2023-03-01T07:14:35;0.85;64.77
68511;SHT31;55512;50.102;19.958;2023-03-01T07:17:01;0.92;64.63
68511;SHT31;55512;50.102;19.958;2023-03-01T07:19:26;1.00;64.41
68511;SHT31;55512;50.102;19.958;2023-03-01T07:21:52;1.10;64.28
68511;SHT31;55512;50.102;19.958;2023-03-01T07:24:18;1.18;64.03
68511;SHT31;55512;50.102;19.958;2023-03-01T07:26:43;1.24;63.83
68511;SHT31;55512;50.102;19.958;2023-03-01T07:29:09;1.30;63.70
68511;SHT31;55512;50.102;19.958;2023-03-01T07:31:36;1.36;63.57
68511;SHT31;55512;50.102;19.958;2023-03-01T07:34:01;1.40;63.44
68511;SHT31;55512;50.102;19.958;2023-03-01T07:36:27;1.47;63.34
68511;SHT31;55512;50.102;19.958;2023-03-01T07:38:53;1.51;63.13
68511;SHT31;55512;50.102;19.958;2023-03-01T07:41:20;1.55;63.01
68511;SHT31;55512;50.102;19.958;2023-03-01T07:43:46;1.58;62.90
68511;SHT31;55512;50.102;19.958;2023-03-01T07:46:12;1.61;62.90
68511;SHT31;55512;50.102;19.958;2023-03-01T07:48:38;1.64;62.90
68511;SHT31;55512;50.102;19.958;2023-03-01T07:51:04;1.68;62.90
68511;SHT31;55512;50.102;19.958;2023-03-01T07:53:31;1.72;62.94
68511;SHT31;55512;50.102;19.958;2023-03-01T07:56:02;1.77;62.90
68511;SHT31;55512;50.102;19.958;2023-03-01T07:58:30;1.83;62.85
68511;SHT31;55512;50.102;19.958;2023-03-01T08:00:56;1.90;62.76
68511;SHT31;55512;50.102;19.958;2023-03-01T08:03:30;1.97;62.55
68511;SHT31;55512;50.102;19.958;2023-03-01T08:05:58;2.02;62.47
68511;SHT31;55512;50.102;19.958;2023-03-01T08:08:25;2.09;62.33
68511;SHT31;55512;50.102;19.958;2023-03-01T08:10:51;2.17;62.16
68511;SHT31;55512;50.102;19.958;2023-03-01T08:13:17;2.25;62.07
68511;SHT31;55512;50.102;19.958;2023-03-01T08:15:47;2.30;61.90
68511;SHT31;55512;50.102;19.958;2023-03-01T08:18:17;2.37;61.70
68511;SHT31;55512;50.102;19.958;2023-03-01T08:20:44;2.42;61.60
68511;SHT31;55512;50.102;19.958;2023-03-01T08:23:10;2.48;61.50
68511;SHT31;55512;50.102;19.958;2023-03-01T08:25:35;2.54;61.44
68511;SHT31;55512;50.102;19.958;2023-03-01T08:28:01;2.58;61.24
68511;SHT31;55512;50.102;19.958;2023-03-01T08:30:27;2.63;61.11
68511;SHT31;55512;50.102;19.958;2023-03-01T08:32:53;2.69;61.04
68511;SHT31;55512;50.102;19.958;2023-03-01T08:35:19;2.76;60.94
68511;SHT31;55512;50.102;19.958;2023-03-01T08:37:46;2.82;60.80
68511;SHT31;55512;50.102;19.958;2023-03-01T08:40:12;2.85;60.76
68511;SHT31;55512;50.102;19.958;2023-03-01T08:42:39;2.89;60.72
68511;SHT31;55512;50.102;19.958;2023-03-01T08:45:06;2.95;60.71
68511;SHT31;55512;50.102;19.958;2023-03-01T08:47:33;2.99;60.67
68511;SHT31;55512;50.102;19.958;2023-03-01T08:49:59;3.05;60.49
68511;SHT31;55512;50.102;19.958;2023-03-01T08:52:25;3.13;60.31
68511;SHT31;55512;50.102;19.958;2023-03-01T08:54:51;3.20;60.18
68511;SHT31;55512;50.102;19.958;2023-03-01T08:57:17;3.27;59.96
68511;SHT31;55512;50.102;19.958;2023-03-01T08:59:43;3.34;59.55
68511;SHT31;55512;50.102;19.958;2023-03-01T09:02:14;3.43;58.89
68511;SHT31;55512;50.102;19.958;2023-03-01T09:04:42;3.52;58.52
68511;SHT31;55512;50.102;19.958;2023-03-01T09:07:09;3.59;58.30
68511;SHT31;55512;50.102;19.958;2023-03-01T09:09:35;3.63;57.97
68511;SHT31;55512;50.102;19.958;2023-03-01T09:12:03;3.67;57.90
68511;SHT31;55512;50.102;19.958;2023-03-01T09:14:29;3.74;57.82
68511;SHT31;55512;50.102;19.958;2023-03-01T09:16:55;3.79;57.63
68511;SHT31;55512;50.102;19.958;2023-03-01T09:19:20;3.85;57.34
68511;SHT31;55512;50.102;19.958;2023-03-01T09:21:46;3.90;57.07
68511;SHT31;55512;50.102;19.958;2023-03-01T09:24:21;3.96;56.94
68511;SHT31;55512;50.102;19.958;2023-03-01T09:26:49;3.99;56.88
68511;SHT31;55512;50.102;19.958;2023-03-01T09:29:18;4.03;56.71
68511;SHT31;55512;50.102;19.958;2023-03-01T09:31:44;4.06;56.60
68511;SHT31;55512;50.102;19.958;2023-03-01T09:34:09;4.11;56.44
68511;SHT31;55512;50.102;19.958;2023-03-01T09:36:35;4.16;55.88
68511;SHT31;55512;50.102;19.958;2023-03-01T09:39:01;4.20;55.76
68511;SHT31;55512;50.102;19.958;2023-03-01T09:50:09;4.40;54.96
68511;SHT31;55512;50.102;19.958;2023-03-01T09:56:00;4.55;54.48
68511;SHT31;55512;50.102;19.958;2023-03-01T10:01:58;4.66;54.50
68511;SHT31;55512;50.102;19.958;2023-03-01T10:04:46;4.74;54.10
68511;SHT31;55512;50.102;19.958;2023-03-01T10:10:43;4.87;53.55
68511;SHT31;55512;50.102;19.958;2023-03-01T10:16:18;4.98;53.29
68511;SHT31;55512;50.102;19.958;2023-03-01T10:18:53;5.04;53.07
68511;SHT31;55512;50.102;19.958;2023-03-01T10:21:26;5.11;53.10
68511;SHT31;55512;50.102;19.958;2023-03-01T10:23:56;5.16;52.97
68511;SHT31;55512;50.102;19.958;2023-03-01T10:29:30;5.29;52.00
68511;SHT31;55512;50.102;19.958;2023-03-01T10:32:05;5.35;52.20
68511;SHT31;55512;50.102;19.958;2023-03-01T10:34:32;5.41;52.17
68511;SHT31;55512;50.102;19.958;2023-03-01T10:37:11;5.47;52.13
68511;SHT31;55512;50.102;19.958;2023-03-01T10:42:33;5.58;51.43
68511;SHT31;55512;50.102;19.958;2023-03-01T10:56:06;5.88;50.40
68511;SHT31;55512;50.102;19.958;2023-03-01T10:58:36;5.94;50.50
68511;SHT31;55512;50.102;19.958;2023-03-01T11:01:06;6.00;50.77
68511;SHT31;55512;50.102;19.958;2023-03-01T11:04:17;6.07;50.87
68511;SHT31;55512;50.102;19.958;2023-03-01T11:06:43;6.13;50.74
68511;SHT31;55512;50.102;19.958;2023-03-01T11:09:23;6.19;50.78
68511;SHT31;55512;50.102;19.958;2023-03-01T11:11:56;6.26;50.66
68511;SHT31;55512;50.102;19.958;2023-03-01T11:14:25;6.32;50.76
68511;SHT31;55512;50.102;19.958;2023-03-01T11:17:04;6.38;50.81
68511;SHT31;55512;50.102;19.958;2023-03-01T11:22:37;6.51;50.94
68511;SHT31;55512;50.102;19.958;2023-03-01T11:25:14;6.56;50.79
68511;SHT31;55512;50.102;19.958;2023-03-01T11:27:43;6.62;50.57
68511;SHT31;55512;50.102;19.958;2023-03-01T11:30:27;6.69;50.57
68511;SHT31;55512;50.102;19.958;2023-03-01T11:35:37;6.76;50.18
68511;SHT31;55512;50.102;19.958;2023-03-01T11:43:41;6.95;49.94
68511;SHT31;55512;50.102;19.958;2023-03-01T11:55:30;7.27;48.69
68511;SHT31;55512;50.102;19.958;2023-03-01T11:58:27;7.34;48.27
68511;SHT31;55512;50.102;19.958;2023-03-01T12:01:01;7.39;48.11
68511;SHT31;55512;50.102;19.958;2023-03-01T12:04:32;7.44;48.07
68511;SHT31;55512;50.102;19.958;2023-03-01T12:07:11;7.53;47.91
68511;SHT31;55512;50.102;19.958;2023-03-01T12:15:49;7.81;47.08
68511;SHT31;55512;50.102;19.958;2023-03-01T12:27:30;8.22;46.24
68511;SHT31;55512;50.102;19.958;2023-03-01T12:36:45;8.55;45.25
68511;SHT31;55512;50.102;19.958;2023-03-01T12:51:07;9.18;43.68
68511;SHT31;55512;50.102;19.958;2023-03-01T12:53:43;9.25;42.75
68511;SHT31;55512;50.102;19.958;2023-03-01T12:56:15;9.24;42.35
68511;SHT31;55512;50.102;19.958;2023-03-01T12:58:51;9.30;42.85
68511;SHT31;55512;50.102;19.958;2023-03-01T13:01:56;9.43;42.99
68511;SHT31;55512;50.102;19.958;2023-03-01T13:07:50;9.69;42.46
68511;SHT31;55512;50.102;19.958;2023-03-01T13:10:27;9.81;42.22
68511;SHT31;55512;50.102;19.958;2023-03-01T13:13:33;9.93;42.18
68511;SHT31;55512;50.102;19.958;2023-03-01T13:16:19;10.03;41.84
68511;SHT31;55512;50.102;19.958;2023-03-01T13:19:17;10.06;42.02
68511;SHT31;55512;50.102;19.958;2023-03-01T13:21:46;10.16;42.04
68511;SHT31;55512;50.102;19.958;2023-03-01T13:32:26;10.66;41.12
68511;SHT31;55512;50.102;19.958;2023-03-01T13:35:03;10.64;40.26
68511;SHT31;55512;50.102;19.958;2023-03-01T13:37:50;10.57;41.12
68511;SHT31;55512;50.102;19.958;2023-03-01T13:42:46;10.83;40.76
68511;SHT31;55512;50.102;19.958;2023-03-01T13:48:02;11.12;40.38
68511;SHT31;55512;50.102;19.958;2023-03-01T13:50:53;11.30;40.10
68511;SHT31;55512;50.102;19.958;2023-03-01T13:53:26;11.47;39.24
68511;SHT31;55512;50.102;19.958;2023-03-01T13:56:11;11.58;38.71
68511;SHT31;55512;50.102;19.958;2023-03-01T13:58:49;11.62;37.45
68511;SHT31;55512;50.102;19.958;2023-03-01T14:01:32;11.57;38.32
68511;SHT31;55512;50.102;19.958;2023-03-01T14:04:02;11.68;37.68
68511;SHT31;55512;50.102;19.958;2023-03-01T14:06:45;11.87;37.75
68511;SHT31;55512;50.102;19.958;2023-03-01T14:09:18;12.08;37.30
68511;SHT31;55512;50.102;19.958;2023-03-01T14:11:59;12.30;36.64
68511;SHT31;55512;50.102;19.958;2023-03-01T14:20:27;15.05;33.57
68511;SHT31;55512;50.102;19.958;2023-03-01T14:22:57;17.83;31.65
68511;SHT31;55512;50.102;19.958;2023-03-01T14:25:28;20.61;29.65
68511;SHT31;55512;50.102;19.958;2023-03-01T14:30:44;24.79;26.83
68511;SHT31;55512;50.102;19.958;2023-03-01T14:33:29;26.20;25.22
68511;SHT31;55512;50.102;19.958;2023-03-01T14:36:08;27.75;24.59
68511;SHT31;55512;50.102;19.958;2023-03-01T14:38:38;29.34;23.48
68511;SHT31;55512;50.102;19.958;2023-03-01T14:41:13;30.74;22.55
68511;SHT31;55512;50.102;19.958;2023-03-01T14:43:43;31.86;21.60
68511;SHT31;55512;50.102;19.958;2023-03-01T14:52:07;34.18;19.01
68511;SHT31;55512;50.102;19.958;2023-03-01T14:54:49;34.15;17.86
68511;SHT31;55512;50.102;19.958;2023-03-01T14:57:19;34.39;17.88
68511;SHT31;55512;50.102;19.958;2023-03-01T14:59:51;34.77;17.41
68511;SHT31;55512;50.102;19.958;2023-03-01T15:02:22;35.23;17.28
68511;SHT31;55512;50.102;19.958;2023-03-01T15:04:52;35.51;16.84
68511;SHT31;55512;50.102;19.958;2023-03-01T15:07:23;35.32;16.38
68511;SHT31;55512;50.102;19.958;2023-03-01T15:09:55;35.39;16.30
68511;SHT31;55512;50.102;19.958;2023-03-01T15:15:00;35.48;15.86
68511;SHT31;55512;50.102;19.958;2023-03-01T15:17:43;35.66;15.38
68511;SHT31;55512;50.102;19.958;2023-03-01T15:20:16;35.52;15.16
68511;SHT31;55512;50.102;19.958;2023-03-01T15:22:46;35.38;15.06
68511;SHT31;55512;50.102;19.958;2023-03-01T15:25:16;35.10;14.94
68511;SHT31;55512;50.102;19.958;2023-03-01T15:27:45;34.78;15.00
68511;SHT31;55512;50.102;19.958;2023-03-01T15:30:13;34.34;14.96
68511;SHT31;55512;50.102;19.958;2023-03-01T15:32:46;33.67;14.96
68511;SHT31;55512;50.102;19.958;2023-03-01T15:40:57;32.22;15.17
68511;SHT31;55512;50.102;19.958;2023-03-01T15:43:45;31.09;15.43
68511;SHT31;55512;50.102;19.958;2023-03-01T15:46:19;29.66;15.77
68511;SHT31;55512;50.102;19.958;2023-03-01T15:48:50;28.82;16.02
68511;SHT31;55512;50.102;19.958;2023-03-01T15:51:42;28.19;16.26
68511;SHT31;55512;50.102;19.958;2023-03-01T15:54:11;27.28;16.70
68511;SHT31;55512;50.102;19.958;2023-03-01T15:56:44;25.72;17.39
68511;SHT31;55512;50.102;19.958;2023-03-01T15:59:10;24.10;18.05
68511;SHT31;55512;50.102;19.958;2023-03-01T16:01:39;22.70;18.75
68511;SHT31;55512;50.102;19.958;2023-03-01T16:04:05;21.39;19.37
68511;SHT31;55512;50.102;19.958;2023-03-01T16:06:31;20.27;20.10
68511;SHT31;55512;50.102;19.958;2023-03-01T16:08:56;19.27;20.72
68511;SHT31;55512;50.102;19.958;2023-03-01T16:11:22;18.25;21.47
68511;SHT31;55512;50.102;19.958;2023-03-01T16:13:48;17.43;22.09
68511;SHT31;55512;50.102;19.958;2023-03-01T16:16:14;16.66;22.69
68511;SHT31;55512;50.102;19.958;2023-03-01T16:18:45;15.90;23.38
68511;SHT31;55512;50.102;19.958;2023-03-01T16:21:29;15.20;24.05
68511;SHT31;55512;50.102;19.958;2023-03-01T16:23:55;14.51;24.66
68511;SHT31;55512;50.102;19.958;2023-03-01T16:26:21;13.85;25.27
68511;SHT31;55512;50.102;19.958;2023-03-01T16:28:47;13.24;25.86
68511;SHT31;55512;50.102;19.958;2023-03-01T16:31:14;12.74;26.43
68511;SHT31;55512;50.102;19.958;2023-03-01T16:33:44;12.26;26.93
68511;SHT31;55512;50.102;19.958;2023-03-01T16:36:14;11.76;27.50
68511;SHT31;55512;50.102;19.958;2023-03-01T16:38:43;11.30;27.95
68511;SHT31;55512;50.102;19.958;2023-03-01T16:41:13;10.91;28.33
68511;SHT31;55512;50.102;19.958;2023-03-01T16:43:42;10.53;28.96
68511;SHT31;55512;50.102;19.958;2023-03-01T16:46:11;10.17;29.56
68511;SHT31;55512;50.102;19.958;2023-03-01T16:48:45;9.85;30.12
68511;SHT31;55512;50.102;19.958;2023-03-01T16:51:11;9.56;30.44
68511;SHT31;55512;50.102;19.958;2023-03-01T16:53:37;9.28;30.79
68511;SHT31;55512;50.102;19.958;2023-03-01T16:56:05;9.06;31.17
68511;SHT31;55512;50.102;19.958;2023-03-01T16:58:33;8.84;31.48
68511;SHT31;55512;50.102;19.958;2023-03-01T17:01:04;8.60;31.89
68511;SHT31;55512;50.102;19.958;2023-03-01T17:03:33;8.36;32.29
68511;SHT31;55512;50.102;19.958;2023-03-01T17:06:03;8.14;32.61
68511;SHT31;55512;50.102;19.958;2023-03-01T17:08:36;7.94;32.93
68511;SHT31;55512;50.102;19.958;2023-03-01T17:11:12;7.77;33.31
68511;SHT31;55512;50.102;19.958;2023-03-01T17:13:41;7.63;33.64
68511;SHT31;55512;50.102;19.958;2023-03-01T17:16:09;7.47;34.16
68511;SHT31;55512;50.102;19.958;2023-03-01T17:18:39;7.26;34.83
68511;SHT31;55512;50.102;19.958;2023-03-01T17:21:06;7.11;35.19
68511;SHT31;55512;50.102;19.958;2023-03-01T17:23:33;7.01;35.42
68511;SHT31;55512;50.102;19.958;2023-03-01T17:26:01;6.94;35.64
68511;SHT31;55512;50.102;19.958;2023-03-01T17:28:29;6.86;35.96
68511;SHT31;55512;50.102;19.958;2023-03-01T17:30:56;6.77;36.23
68511;SHT31;55512;50.102;19.958;2023-03-01T17:33:26;6.67;36.59
68511;SHT31;55512;50.102;19.958;2023-03-01T17:35:55;6.54;36.98
68511;SHT31;55512;50.102;19.958;2023-03-01T17:38:21;6.39;37.47
68511;SHT31;55512;50.102;19.958;2023-03-01T17:40:47;6.28;37.90
68511;SHT31;55512;50.102;19.958;2023-03-01T17:43:13;6.17;38.23
68511;SHT31;55512;50.102;19.958;2023-03-01T17:45:40;6.07;38.55
68511;SHT31;55512;50.102;19.958;2023-03-01T17:48:11;5.97;38.89
68511;SHT31;55512;50.102;19.958;2023-03-01T17:50:37;5.88;39.27
68511;SHT31;55512;50.102;19.958;2023-03-01T17:53:04;5.80;39.59
68511;SHT31;55512;50.102;19.958;2023-03-01T17:55:34;5.72;39.83
68511;SHT31;55512;50.102;19.958;2023-03-01T17:58:01;5.67;39.99
68511;SHT31;55512;50.102;19.958;2023-03-01T18:00:28;5.62;40.11
68511;SHT31;55512;50.102;19.958;2023-03-01T18:02:55;5.56;40.41
68511;SHT31;55512;50.102;19.958;2023-03-01T18:05:20;5.47;40.78